Portada
METAR-TAF:

METAR-TAF

Aeroports :

Aeroport de Kangerlussuaq

Kangerlussuaq, Grenlàndia

latitud: 67-01N, longitud: 050-42W, altitud: 50 m

Observació

L'informe es va fer fa 1 hora i 4 minuts, a les 08:50 UTC
Vent 4 kt del Nord/Nord-Est, variant entre Nord i Est/Nord-Est
Temperatura -13°C
Humitat 66%
Pressió 1010 hPa
Visibilitat 10 km o més

METAR: BGSF 150850Z AUTO 02004KT 360V070 9999NDV NCD M13/M18 Q1010

Hora: 07:54 (09:54 UTC)

Pronòstic

L'informe es va fer fa 4 hores i 55 minuts, a les 04:59 UTC
Pronòstic vàlid del 15 a les 06 UTC al 16 a les 01 UTC
Vent 8 kt amb direcció variable
Visibilitat 10 km o més
Escasses núvols a una alçada de 20000 ft
Evolucionant progressivament
l' 15 a les 23 UTC al 16 a les 01 UTC
Escasses núvols a una alçada de 1400 ft
Núvols disperses a una alçada de 2000 ft
Cel ennuvolat a una alçada de 5000 ft

TAF: BGSF 150459Z 1506/1601 VRB08KT 9999 FEW200 BECMG 1523/1601 FEW014 SCT020 BKN050

Observacions i pronòstics meteorològics de més de 4000 aeroports (METAR i TAF).

Les estacions disponibles són els punts grocs i vermells al mapa.

Posi el ratolí al punt desitjat per veure el nom de l'estació.

Feu clic per veure les observacions i els pronòstics meteorològics.

Per canviar el mapa: feu clic els botons verds amb una creu de color negre per apropar; al botó verd amb un guió per allunyar la imatge; o en les fletxes verdes per a mapes adjacents.


METAR-TAF: